<?xml version='1.0' encoding='UTF-8'?>
<gpx xmlns="http://www.topografix.com/GPX/1/1" creator="www.balnam.be" version="1.1" xmlns:xsi="http://www.w3.org/2001/XMLSchema-instance" xsi:schemaLocation="http://www.topografix.com/GPX/1/1 http://www.topografix.com/GPX/1/1/gpx.xsd">
<trk>
<name>ngdbn12</name>
<cmt>v</cmt>
<desc>Bourseigne-Neuve Chemin n°12 Voie de la Senée</desc>
<link href="https://chemins.be/bourseigneneuve/chemin/12"/><trkseg>
<trkpt lat="49.985762" lon="4.862751"><time>2026-05-03T05:39:45Z</time></trkpt>
<trkpt lat="49.984681" lon="4.862795"><time>2026-05-03T05:49:45Z</time></trkpt>
<trkpt lat="49.982192" lon="4.864554"><time>2026-05-03T05:59:45Z</time></trkpt>
<trkpt lat="49.981029" lon="4.865295"><time>2026-05-03T06:09:45Z</time></trkpt>
<trkpt lat="49.980382" lon="4.865247"><time>2026-05-03T06:19:45Z</time></trkpt>
<trkpt lat="49.979440" lon="4.864874"><time>2026-05-03T06:29:45Z</time></trkpt>
<trkpt lat="49.977047" lon="4.863051"><time>2026-05-03T06:39:45Z</time></trkpt>
<trkpt lat="49.973019" lon="4.858995"><time>2026-05-03T06:49:45Z</time></trkpt>
<trkpt lat="49.971622" lon="4.857628"><time>2026-05-03T06:59:45Z</time></trkpt>
<trkpt lat="49.969425" lon="4.856267"><time>2026-05-03T07:09:45Z</time></trkpt>
<trkpt lat="49.968347" lon="4.856089"><time>2026-05-03T07:19:45Z</time></trkpt>
<trkpt lat="49.967952" lon="4.855862"><time>2026-05-03T07:29:45Z</time></trkpt>
<trkpt lat="49.966527" lon="4.854760"><time>2026-05-03T07:39:45Z</time></trkpt>
<trkpt lat="49.966065" lon="4.853487"><time>2026-05-03T07:49:45Z</time></trkpt>
<trkpt lat="49.966068" lon="4.852749"><time>2026-05-03T07:59:45Z</time></trkpt>
<trkpt lat="49.965916" lon="4.852510"><time>2026-05-03T08:09:45Z</time></trkpt>
<trkpt lat="49.963744" lon="4.851736"><time>2026-05-03T08:19:45Z</time></trkpt>
<trkpt lat="49.961045" lon="4.849966"><time>2026-05-03T08:29:45Z</time></trkpt>
<trkpt lat="49.959843" lon="4.849355"><time>2026-05-03T08:39:45Z</time></trkpt>
<trkpt lat="49.959281" lon="4.848151"><time>2026-05-03T08:49:45Z</time></trkpt>
<trkpt lat="49.954629" lon="4.844843"><time>2026-05-03T08:59:45Z</time></trkpt>
<trkpt lat="49.954149" lon="4.845716"><time>2026-05-03T09:09:45Z</time></trkpt>
<trkpt lat="49.953805" lon="4.846298"><time>2026-05-03T09:19:45Z</time></trkpt>
<trkpt lat="49.953425" lon="4.846684"><time>2026-05-03T09:29:45Z</time></trkpt>
<trkpt lat="49.952507" lon="4.847024"><time>2026-05-03T09:39:45Z</time></trkpt>
<trkpt lat="49.951053" lon="4.848472"><time>2026-05-03T09:49:45Z</time></trkpt>
</trkseg>
</trk>
</gpx>